Ladd AAF Airfield Fairbanks/Ft Wainwright US
ICAO: PAFB
IATA:
Category: Medium
Scheduled Services:

Elevation: 454 ft
TransAlt. 18000 ft.

Airport Communications:
FAIRBANKS APP:125.35
ATIS:134.25
CTAF:125
FAIRBANKS DEP:125.35
FAIRBANKS RDO:25.54
GND:121.7
MEDIVAC OPS:142.35
BASE OPS:118.9
PMSV METRO:128.8
TWR:125

PAFB Zoom In..

Runways:

(A) RW 07L length 8575 ft width 150 ft
---- / hdg 68

(B) RW 07R length 7280 ft width 75 ft
---- / hdg 68

(C) RW 25L length 7280 ft width 75 ft
---- / hdg 248

(D) RW 25R length 8575 ft width 150 ft
---- / hdg 248

Location; PAFB
Day. 21 / Time. 14.29 Zulu
* Altimeter: 29.40
* Temperature: 09° c. 48.2°f.
* Wind from: 280° Speed 03 kn.
Dewpoint: 08° c.
Visibility: 9 Statute Miles.
Clouds: Broken 2000 ft.
Clouds: Broken 7000 ft.

PAFB 211429Z AUTO 28003KT 9SM BKN020 BKN070 09/08 A2940 RMK AO2 RAE24 SLP958 $


Wind From 280°
Speed 03 kn.

 
 
jpsmedia.com for Web Design SOUNDCLOUD worldairports.se 2018   terms of use